Time;durP1;ratioP1;P1;durP2;ratioP2;P2;SDS_P1;SDS_P2;PMS_P1;PMS_P2;Temp;Humidity;BMP_temperature;BMP_pressure;BME280_temperature;BME280_humidity;BME280_pressure;Samples;Min_cycle;Max_cycle;Signal;HPM_P1;HPM_P2
2021/12/25 00:01:46;;;;;;;24.05;13.95;;;4.40;99.90;;;;;;4992879;28;20499;-76
2021/12/25 00:04:11;;;;;;;25.52;14.77;;;4.40;99.90;;;;;;4979179;28;20043;-78
2021/12/25 00:06:37;;;;;;;;;;;4.30;99.90;;;;;;4992845;28;20116;-78
2021/12/25 00:09:04;;;;;;;17.27;11.38;;;4.20;99.90;;;;;;4977787;28;19910;-78
2021/12/25 00:11:30;;;;;;;22.75;13.75;;;4.30;99.90;;;;;;4993309;28;20031;-78
2021/12/25 00:13:55;;;;;;;;;;;4.20;99.90;;;;;;4993449;28;20046;-78
2021/12/25 00:16:21;;;;;;;21.52;12.57;;;4.00;99.90;;;;;;4993505;28;19910;-78
2021/12/25 00:18:46;;;;;;;;;;;3.90;99.90;;;;;;4993716;28;20030;-79
2021/12/25 00:21:12;;;;;;;36.17;20.80;;;3.90;99.90;;;;;;4994544;28;19906;-78
2021/12/25 00:23:38;;;;;;;;;;;3.80;99.90;;;;;;4981480;28;20043;-78
2021/12/25 00:26:27;;;;;;;31.17;18.38;;;3.70;99.90;;;;;;4977949;28;20318;-78
2021/12/25 00:28:59;;;;;;;34.53;17.08;;;3.70;99.90;;;;;;4980191;28;20030;-79
2021/12/25 00:34:17;;;;;;;30.90;19.30;;;3.50;99.90;;;;;;4946896;28;20500;-78
2021/12/25 00:36:42;;;;;;;;;;;3.40;99.90;;;;;;4984248;28;20045;-78
2021/12/25 00:39:08;;;;;;;39.10;24.05;;;3.30;99.90;;;;;;5002284;28;19905;-77
2021/12/25 00:41:34;;;;;;;37.88;20.73;;;3.20;99.90;;;;;;5003380;28;20057;-79
2021/12/25 00:44:00;;;;;;;;;;;3.20;99.90;;;;;;4989746;28;20039;-78
2021/12/25 00:46:29;;;;;;;28.38;16.55;;;3.10;99.90;;;;;;5005957;28;20379;-79
2021/12/25 00:48:55;;;;;;;27.58;16.85;;;3.10;99.90;;;;;;5005016;28;20023;-78
2021/12/25 00:51:21;;;;;;;;;;;3.10;99.90;;;;;;5004189;28;20033;-79
2021/12/25 00:53:50;;;;;;;25.98;15.98;;;3.00;99.90;;;;;;4987852;28;20445;-79
2021/12/25 00:56:21;;;;;;;28.38;16.48;;;2.90;99.90;;;;;;4988266;28;20109;-78
2021/12/25 00:58:52;;;;;;;27.48;15.85;;;2.80;99.90;;;;;;4989518;28;20074;-78
2021/12/25 01:01:41;;;;;;;23.85;14.15;;;2.80;99.90;;;;;;4990448;28;20017;-79
2021/12/25 01:04:10;;;;;;;22.77;14.07;;;2.80;99.90;;;;;;4985270;28;20058;-78
2021/12/25 01:06:40;;;;;;;27.70;16.85;;;2.80;99.90;;;;;;5003763;28;20031;-79
2021/12/25 01:09:13;;;;;;;25.00;15.07;;;2.70;99.90;;;;;;4989354;28;20027;-79
2021/12/25 01:11:50;;;;;;;30.48;17.75;;;2.60;99.90;;;;;;5006827;28;20031;-79
2021/12/25 01:14:35;;;;;;;45.50;22.48;;;2.60;99.90;;;;;;4990955;28;20057;-78
2021/12/25 01:30:32;;;;;;;35.78;19.13;;;2.50;99.90;;;;;;4977959;28;20027;-78
2021/12/25 01:41:13;;;;;;;46.85;22.65;;;2.60;99.90;;;;;;4976795;28;20448;-78
2021/12/25 01:49:07;;;;;;;55.13;27.98;;;2.30;99.90;;;;;;4977583;28;20403;-78
2021/12/25 01:51:33;;;;;;;;;;;2.20;99.90;;;;;;4992797;28;20035;-79
2021/12/25 01:53:58;;;;;;;28.23;16.45;;;2.10;99.90;;;;;;4978386;28;19953;-78
2021/12/25 01:56:25;;;;;;;31.33;18.38;;;2.20;99.90;;;;;;4977192;28;20046;-79
2021/12/25 01:58:52;;;;;;;31.35;17.73;;;2.30;99.90;;;;;;4993128;28;20039;-78
2021/12/25 02:01:18;;;;;;;26.52;16.63;;;2.30;99.90;;;;;;4992783;28;20023;-79
2021/12/25 02:03:44;;;;;;;32.13;16.20;;;2.30;99.90;;;;;;4992897;28;20023;-78
2021/12/25 02:06:11;;;;;;;;;;;2.20;99.90;;;;;;4992270;28;20034;-77
2021/12/25 02:08:39;;;;;;;30.33;16.73;;;2.20;99.90;;;;;;4988591;28;20413;-77
2021/12/25 02:11:05;;;;;;;36.83;20.27;;;2.10;99.90;;;;;;4987984;28;20479;-78
2021/12/25 02:13:31;;;;;;;;;;;2.10;99.90;;;;;;4973429;28;20050;-77
2021/12/25 02:15:58;;;;;;;28.38;16.38;;;2.10;99.90;;;;;;4987746;28;19910;-77
2021/12/25 02:18:54;;;;;;;41.10;20.90;;;2.10;99.90;;;;;;4976231;28;20634;-79
2021/12/25 02:21:20;;;;;;;31.40;17.17;;;2.20;99.90;;;;;;4983633;28;20023;-80
2021/12/25 02:23:46;;;;;;;37.10;18.58;;;2.40;99.90;;;;;;4982244;28;20161;-79
2021/12/25 02:26:12;;;;;;;38.15;21.38;;;2.40;99.90;;;;;;4978150;28;20042;-78
2021/12/25 02:28:38;;;;;;;;;;;2.60;99.90;;;;;;4995813;28;20045;-79
2021/12/25 02:31:10;;;;;;;36.00;19.90;;;2.60;99.90;;;;;;4996781;28;20343;-79
2021/12/25 02:33:35;;;;;;;51.08;25.75;;;2.60;99.90;;;;;;4997578;28;20088;-79
2021/12/25 02:36:03;;;;;;;;;;;2.50;99.90;;;;;;4997982;28;20042;-78
2021/12/25 02:38:29;;;;;;;;;;;2.40;99.90;;;;;;4982683;28;19910;-79
2021/12/25 02:40:55;;;;;;;38.92;20.27;;;2.30;99.90;;;;;;4999537;28;19906;-78
2021/12/25 02:43:22;;;;;;;32.63;17.95;;;2.30;99.90;;;;;;4997533;28;20031;-78
2021/12/25 02:45:48;;;;;;;31.23;18.83;;;2.40;99.90;;;;;;4997535;28;20440;-79
2021/12/25 02:48:17;;;;;;;30.52;18.48;;;2.40;99.90;;;;;;4996780;28;20442;-78
2021/12/25 02:50:44;;;;;;;36.95;20.23;;;2.40;99.90;;;;;;4997222;28;20023;-80
2021/12/25 02:53:11;;;;;;;34.63;19.35;;;2.50;99.90;;;;;;4996997;28;20504;-79
2021/12/25 02:55:37;;;;;;;30.70;18.30;;;2.50;99.90;;;;;;4981853;28;20045;-78
2021/12/25 02:58:04;;;;;;;28.25;17.63;;;2.50;99.90;;;;;;4981002;28;20035;-79
2021/12/25 03:00:34;;;;;;;34.58;19.02;;;2.60;99.90;;;;;;4981066;28;20079;-80
2021/12/25 03:03:03;;;;;;;32.85;19.02;;;2.70;99.90;;;;;;4981548;28;20098;-78
2021/12/25 03:05:29;;;;;;;31.73;18.65;;;2.80;99.90;;;;;;4997193;28;20026;-78
2021/12/25 03:07:54;;;;;;;;;;;2.90;99.90;;;;;;4997492;28;20038;-79
2021/12/25 03:10:20;;;;;;;29.05;16.80;;;2.90;99.90;;;;;;4982302;28;19914;-79
2021/12/25 03:12:50;;;;;;;27.25;16.63;;;3.00;99.90;;;;;;4980861;28;20042;-79
2021/12/25 03:15:26;;;;;;;27.98;17.17;;;3.00;99.90;;;;;;4996365;28;20035;-79
2021/12/25 03:17:53;;;;;;;25.38;15.77;;;3.10;99.90;;;;;;4982759;28;20054;-78
2021/12/25 03:20:19;;;;;;;26.35;15.57;;;3.10;99.90;;;;;;4999178;28;20070;-77
2021/12/25 03:22:44;;;;;;;;;;;3.10;99.90;;;;;;4993190;28;20056;-78
2021/12/25 03:25:12;;;;;;;22.30;14.65;;;3.10;99.90;;;;;;4990717;28;19921;-78
2021/12/25 03:27:40;;;;;;;28.13;13.10;;;3.20;99.90;;;;;;4990783;28;20653;-78
2021/12/25 03:30:09;;;;;;;24.13;13.13;;;3.20;99.90;;;;;;4990494;28;20058;-78
2021/12/25 03:32:35;;;;;;;23.77;15.60;;;3.30;99.90;;;;;;4990374;28;20067;-78
2021/12/25 03:35:01;;;;;;;25.48;16.25;;;3.30;99.90;;;;;;4990543;28;20043;-79
2021/12/25 03:37:27;;;;;;;;;;;3.40;99.90;;;;;;4991890;28;20037;-78
2021/12/25 03:39:52;;;;;;;28.67;18.40;;;3.30;99.90;;;;;;4992192;28;19906;-78
2021/12/25 03:42:18;;;;;;;;;;;3.30;99.90;;;;;;4990077;28;20023;-77
2021/12/25 03:44:45;;;;;;;26.05;14.25;;;3.20;99.90;;;;;;4973581;28;20413;-78
2021/12/25 03:47:22;;;;;;;22.08;15.02;;;3.30;99.90;;;;;;4972677;28;20114;-78
2021/12/25 03:58:05;;;;;;;33.00;18.75;;;3.10;99.90;;;;;;4990640;28;20047;-79
2021/12/25 04:00:32;;;;;;;29.98;18.58;;;3.10;99.90;;;;;;4987606;28;20055;-79
2021/12/25 04:03:03;;;;;;;35.88;20.65;;;3.10;99.90;;;;;;5002240;28;20023;-78
2021/12/25 04:05:32;;;;;;;35.33;19.15;;;3.20;99.90;;;;;;5000555;28;20050;-79
2021/12/25 04:08:05;;;;;;;34.53;20.25;;;3.20;99.90;;;;;;4988356;28;20030;-79
2021/12/25 04:10:35;;;;;;;37.65;22.33;;;3.20;99.90;;;;;;4994319;28;20026;-79
2021/12/25 04:13:03;;;;;;;41.00;23.83;;;3.10;99.90;;;;;;5009518;28;20038;-78
2021/12/25 04:15:29;;;;;;;39.42;21.40;;;3.10;99.90;;;;;;5008791;28;20027;-79
2021/12/25 04:17:54;;;;;;;;;;;3.00;99.90;;;;;;4999084;28;20038;-79
2021/12/25 04:20:20;;;;;;;58.20;29.00;;;3.10;99.90;;;;;;4977049;28;19914;-78
2021/12/25 04:23:03;;;;;;;;;;;3.00;99.90;;;;;;4975570;28;20031;-78
2021/12/25 04:25:32;;;;;;;34.97;19.17;;;3.00;99.90;;;;;;4991499;28;19906;-78
2021/12/25 04:28:06;;;;;;;30.98;20.00;;;3.00;99.90;;;;;;4979992;28;20094;-78
2021/12/25 04:30:43;;;;;;;27.73;16.85;;;3.10;99.90;;;;;;4992537;28;20392;-78
2021/12/25 05:05:21;;;;;;;60.92;29.63;;;3.00;99.90;;;;;;4981738;28;20062;-78
2021/12/25 05:07:47;;;;;;;77.05;34.08;;;3.00;99.90;;;;;;4980181;28;20034;-78
2021/12/25 05:10:13;;;;;;;;;;;3.10;99.90;;;;;;4980711;28;20485;-78
2021/12/25 05:12:38;;;;;;;80.22;29.65;;;3.20;99.90;;;;;;4997006;28;20013;-78
2021/12/25 05:15:05;;;;;;;;;;;3.20;99.90;;;;;;4982580;28;20170;-78
2021/12/25 05:17:30;;;;;;;64.53;25.15;;;3.40;99.90;;;;;;4980994;28;19910;-79
2021/12/25 05:19:57;;;;;;;;;;;3.50;99.90;;;;;;4997222;28;20106;-77
2021/12/25 05:22:23;;;;;;;46.75;22.48;;;3.50;99.90;;;;;;4981154;28;19913;-80
2021/12/25 05:24:49;;;;;;;;;;;3.60;99.90;;;;;;4982173;28;20035;-78
2021/12/25 05:27:15;;;;;;;46.05;19.73;;;3.70;99.90;;;;;;4983158;28;19929;-80
2021/12/25 05:29:45;;;;;;;39.47;21.60;;;3.70;99.90;;;;;;4987824;28;20027;-78
2021/12/25 05:32:12;;;;;;;41.92;20.98;;;3.80;99.90;;;;;;5001699;28;20035;-79
2021/12/25 05:34:38;;;;;;;30.40;17.35;;;3.80;99.90;;;;;;4988187;28;20062;-79
2021/12/25 05:37:04;;;;;;;;;;;3.90;99.90;;;;;;5003319;28;20043;-79
2021/12/25 05:39:29;;;;;;;24.98;12.65;;;3.90;99.90;;;;;;4987094;28;19906;-79
2021/12/25 05:41:56;;;;;;;;;;;4.00;99.90;;;;;;4986626;28;20069;-78
2021/12/25 05:44:22;;;;;;;28.50;14.93;;;4.00;99.90;;;;;;4986372;28;19977;-79
2021/12/25 05:46:48;;;;;;;;;;;4.00;99.90;;;;;;5003370;28;20081;-79
2021/12/25 05:49:14;;;;;;;22.95;13.02;;;3.90;99.90;;;;;;5001858;28;20382;-79
2021/12/25 05:51:40;;;;;;;;;;;3.90;99.90;;;;;;4999108;28;20038;-78
2021/12/25 05:54:06;;;;;;;25.42;13.00;;;3.80;99.90;;;;;;4976726;28;19954;-78
2021/12/25 05:56:31;;;;;;;;;;;3.80;99.90;;;;;;4977776;28;20055;-78
2021/12/25 05:58:57;;;;;;;41.78;20.23;;;3.70;99.90;;;;;;4976976;28;19916;-77
2021/12/25 06:01:23;;;;;;;42.08;21.83;;;3.70;99.90;;;;;;4991333;28;20066;-78
2021/12/25 06:03:48;;;;;;;;;;;3.70;99.90;;;;;;4977994;28;20113;-79
2021/12/25 06:06:14;;;;;;;38.05;20.38;;;3.60;99.90;;;;;;4995463;28;20407;-78
2021/12/25 06:08:40;;;;;;;;;;;3.50;99.90;;;;;;4975040;28;20624;-78
2021/12/25 06:11:05;;;;;;;29.33;16.90;;;3.50;99.90;;;;;;4990993;28;19910;-79
2021/12/25 06:13:31;;;;;;;;;;;3.40;99.90;;;;;;4976118;28;20050;-78
2021/12/25 06:15:57;;;;;;;29.70;15.20;;;3.40;99.90;;;;;;4990423;28;19910;-78
2021/12/25 06:18:23;;;;;;;;;;;3.40;99.90;;;;;;4989592;28;20081;-78
2021/12/25 06:20:48;;;;;;;30.55;14.65;;;3.30;99.90;;;;;;4997298;28;19913;-79
2021/12/25 06:23:14;;;;;;;;;;;3.40;99.90;;;;;;4979989;28;20022;-79
2021/12/25 06:25:40;;;;;;;30.42;17.20;;;3.40;99.90;;;;;;4974679;28;19921;-78
2021/12/25 06:28:06;;;;;;;;;;;3.50;99.90;;;;;;4991373;28;20522;-78
2021/12/25 06:30:32;;;;;;;36.42;21.20;;;3.60;99.90;;;;;;4979271;28;20030;-79
2021/12/25 06:32:57;;;;;;;;;;;3.70;99.90;;;;;;4993390;28;20097;-77
2021/12/25 06:35:23;;;;;;;36.25;22.90;;;3.70;99.90;;;;;;4988598;28;20004;-78
2021/12/25 06:37:48;;;;;;;;;;;3.70;99.90;;;;;;4998729;28;20090;-80
2021/12/25 06:40:18;;;;;;;22.30;13.43;;;3.70;99.90;;;;;;4983744;28;20314;-79
2021/12/25 06:42:44;;;;;;;18.10;12.77;;;3.70;99.90;;;;;;4994511;28;20403;-79
2021/12/25 06:45:10;;;;;;;21.10;13.00;;;3.70;99.90;;;;;;4979532;28;20033;-79
2021/12/25 06:47:36;;;;;;;;;;;3.90;99.90;;;;;;4994640;28;20019;-77
2021/12/25 06:50:03;;;;;;;20.73;11.75;;;3.90;99.90;;;;;;4994030;28;19977;-78
2021/12/25 06:52:29;;;;;;;20.42;12.50;;;3.90;99.90;;;;;;4979604;28;20053;-78
2021/12/25 06:54:54;;;;;;;;;;;4.10;99.90;;;;;;4995752;28;20042;-79
2021/12/25 06:57:20;;;;;;;14.43;9.27;;;4.20;99.90;;;;;;4995027;28;19961;-78
2021/12/25 06:59:45;;;;;;;16.88;10.23;;;4.20;99.90;;;;;;4996025;28;20034;-79
2021/12/25 07:02:12;;;;;;;17.90;11.23;;;4.10;99.90;;;;;;4994999;28;20035;-78
2021/12/25 07:04:38;;;;;;;25.83;15.15;;;4.10;99.90;;;;;;4996411;28;20054;-78
2021/12/25 07:07:03;;;;;;;;;;;4.10;99.90;;;;;;4982365;28;20026;-79
2021/12/25 07:09:29;;;;;;;42.13;23.52;;;4.00;99.90;;;;;;4982288;28;19914;-79
2021/12/25 07:11:56;;;;;;;;;;;4.00;99.90;;;;;;4995561;28;20498;-78
2021/12/25 07:14:22;;;;;;;48.63;29.38;;;3.90;99.90;;;;;;4995464;28;19933;-79
2021/12/25 07:16:48;;;;;;;;;;;3.90;99.90;;;;;;4996342;28;20078;-79
2021/12/25 07:19:15;;;;;;;41.50;27.08;;;3.90;99.90;;;;;;4995507;28;19906;-79
2021/12/25 07:21:42;;;;;;;52.00;34.03;;;3.80;99.90;;;;;;4995684;28;20037;-79
2021/12/25 07:24:09;;;;;;;58.55;37.10;;;3.90;99.90;;;;;;4979645;28;20039;-79
2021/12/25 07:26:36;;;;;;;61.88;38.22;;;3.90;99.90;;;;;;4994908;28;20034;-78
2021/12/25 07:29:02;;;;;;;66.57;40.83;;;3.90;99.90;;;;;;4974118;28;20034;-77
2021/12/25 07:31:28;;;;;;;;;;;4.00;99.90;;;;;;4991685;28;20034;-79
2021/12/25 07:33:53;;;;;;;55.80;34.97;;;4.10;99.90;;;;;;4973813;28;20021;-78
2021/12/25 07:36:19;;;;;;;;;;;4.10;99.90;;;;;;4974722;28;20062;-78
2021/12/25 07:38:45;;;;;;;88.07;46.53;;;4.20;99.90;;;;;;4989310;28;19910;-78
2021/12/25 07:41:10;;;;;;;;;;;4.20;99.90;;;;;;4974345;28;20546;-77
2021/12/25 07:43:36;;;;;;;50.53;32.45;;;4.30;99.90;;;;;;4975089;28;19933;-78
2021/12/25 07:46:02;;;;;;;;;;;4.40;99.90;;;;;;4975466;28;20098;-76
2021/12/25 07:48:28;;;;;;;40.67;26.83;;;4.40;99.90;;;;;;4974938;28;19914;-79
2021/12/25 07:50:54;;;;;;;;;;;4.40;99.90;;;;;;4989993;28;20023;-78
2021/12/25 07:53:19;;;;;;;41.60;25.13;;;4.40;99.90;;;;;;4988498;28;20545;-78
2021/12/25 07:55:49;;;;;;;;;;;4.40;99.90;;;;;;4986482;28;20188;-78
2021/12/25 07:58:16;;;;;;;36.55;25.15;;;4.50;99.90;;;;;;4986622;28;20008;-77
2021/12/25 08:00:43;;;;;;;39.97;26.92;;;4.50;99.90;;;;;;4986598;28;20023;-78
2021/12/25 08:03:08;;;;;;;50.53;31.83;;;4.60;99.90;;;;;;4975666;28;20030;-78
2021/12/25 08:05:34;;;;;;;;;;;4.60;99.90;;;;;;4990646;28;20058;-78
2021/12/25 08:08:01;;;;;;;45.83;29.98;;;4.60;99.90;;;;;;4990872;28;19969;-78
2021/12/25 08:10:26;;;;;;;40.58;28.98;;;4.70;99.90;;;;;;4993287;28;20030;-78
2021/12/25 08:12:53;;;;;;;;;;;4.70;99.90;;;;;;4984322;28;20039;-78
2021/12/25 08:15:24;;;;;;;33.65;23.33;;;4.60;99.90;;;;;;4982646;28;19906;-78
2021/12/25 08:17:51;;;;;;;30.05;22.77;;;4.60;99.90;;;;;;4983262;28;20031;-78
2021/12/25 08:20:17;;;;;;;32.85;23.17;;;4.70;99.90;;;;;;4997896;28;20041;-78
2021/12/25 08:22:43;;;;;;;29.08;21.23;;;4.80;99.90;;;;;;4980644;28;20462;-79
2021/12/25 08:25:10;;;;;;;;;;;4.80;99.90;;;;;;5001290;28;20463;-79
2021/12/25 08:27:37;;;;;;;29.65;20.80;;;4.90;99.90;;;;;;5005643;28;19910;-79
2021/12/25 08:30:07;;;;;;;32.00;20.70;;;4.90;99.90;;;;;;5006012;28;20018;-80
2021/12/25 08:32:33;;;;;;;27.55;18.95;;;5.00;99.90;;;;;;4991728;28;20027;-78
2021/12/25 08:34:59;;;;;;;30.60;17.63;;;5.00;99.90;;;;;;4990716;28;20625;-78
2021/12/25 08:37:26;;;;;;;83.35;52.38;;;5.10;99.90;;;;;;4991903;28;20018;-78
2021/12/25 08:39:53;;;;;;;31.23;21.05;;;5.20;99.90;;;;;;4992091;28;20031;-79
2021/12/25 08:42:21;;;;;;;34.97;22.13;;;5.30;99.90;;;;;;4997289;28;20034;-78
2021/12/25 08:47:27;;;;;;;25.23;16.48;;;5.30;99.90;;;;;;4982846;28;20106;-79
2021/12/25 08:49:53;;;;;;;25.08;17.05;;;5.30;99.90;;;;;;4982533;28;20022;-79
2021/12/25 08:52:19;;;;;;;;;;;5.30;99.90;;;;;;4997126;28;20511;-79
2021/12/25 08:54:48;;;;;;;41.53;25.25;;;5.20;99.90;;;;;;4997686;28;19947;-79
2021/12/25 08:57:15;;;;;;;52.17;31.17;;;5.20;99.90;;;;;;4983608;28;20131;-79
2021/12/25 08:59:41;;;;;;;61.65;38.70;;;5.10;99.90;;;;;;4997462;28;20042;-78
2021/12/25 09:02:12;;;;;;;66.63;39.38;;;5.20;99.90;;;;;;4981093;28;20381;-80
2021/12/25 09:04:38;;;;;;;52.78;30.30;;;5.20;99.90;;;;;;4982018;28;20023;-78
2021/12/25 09:07:05;;;;;;;53.13;24.95;;;5.20;99.90;;;;;;4997270;28;20483;-78
2021/12/25 09:09:31;;;;;;;47.33;24.05;;;5.30;99.90;;;;;;4997670;28;20043;-78
2021/12/25 09:11:57;;;;;;;;;;;5.50;99.90;;;;;;4999703;28;20027;-78
2021/12/25 09:14:23;;;;;;;81.05;42.13;;;5.50;99.90;;;;;;4998026;28;19906;-79
2021/12/25 09:16:49;;;;;;;93.57;46.00;;;5.60;99.90;;;;;;4999549;28;20090;-80
2021/12/25 09:19:14;;;;;;;;;;;5.70;99.90;;;;;;4983697;28;20052;-79
2021/12/25 09:21:40;;;;;;;71.38;45.10;;;5.70;99.90;;;;;;4998311;28;20456;-80
2021/12/25 09:24:06;;;;;;;;;;;5.80;99.90;;;;;;4998252;28;20038;-79
2021/12/25 09:26:32;;;;;;;43.78;27.55;;;5.90;99.90;;;;;;4997802;28;19906;-78
2021/12/25 09:28:57;;;;;;;;;;;6.00;99.90;;;;;;4982415;28;20035;-79
2021/12/25 09:31:23;;;;;;;82.95;45.00;;;6.10;99.90;;;;;;4998337;28;19906;-79
2021/12/25 09:33:49;;;;;;;;;;;6.20;99.90;;;;;;5000378;28;20042;-78
2021/12/25 09:36:15;;;;;;;20.10;12.68;;;6.30;99.90;;;;;;4984909;28;19917;-78
2021/12/25 09:38:41;;;;;;;24.95;17.55;;;6.30;99.90;;;;;;5001621;28;20034;-78
2021/12/25 09:41:08;;;;;;;21.90;15.48;;;6.30;99.90;;;;;;4978867;28;20030;-78
2021/12/25 09:43:34;;;;;;;33.67;22.17;;;6.40;99.90;;;;;;4976777;28;20034;-78
2021/12/25 09:46:00;;;;;;;;;;;6.40;99.90;;;;;;4991249;28;20022;-79
2021/12/25 09:48:26;;;;;;;33.40;21.17;;;6.40;99.90;;;;;;4994574;28;19965;-77
2021/12/25 09:50:52;;;;;;;25.80;17.42;;;6.40;99.90;;;;;;5000475;28;20392;-77
2021/12/25 09:53:18;;;;;;;;;;;6.40;99.90;;;;;;4988302;28;20043;-79
2021/12/25 09:55:45;;;;;;;42.03;25.23;;;6.40;99.90;;;;;;5001400;28;19924;-78
2021/12/25 09:58:11;;;;;;;51.40;34.00;;;6.50;99.90;;;;;;5002609;28;20070;-79
2021/12/25 10:00:41;;;;;;;53.70;35.22;;;6.60;99.90;;;;;;4985770;28;20027;-79
2021/12/25 10:03:07;;;;;;;57.00;36.95;;;6.60;99.90;;;;;;4986813;28;20023;-78
2021/12/25 10:05:34;;;;;;;;;;;6.70;99.90;;;;;;5002509;28;20022;-79
2021/12/25 10:08:00;;;;;;;;;;;6.80;99.90;;;;;;4987188;28;19913;-79
2021/12/25 10:10:36;;;;;;;56.72;40.47;;;6.80;99.90;;;;;;4988301;28;19910;-80
2021/12/25 10:13:02;;;;;;;34.65;25.63;;;7.00;99.90;;;;;;5003950;28;20034;-79
2021/12/25 10:15:28;;;;;;;;;;;7.00;99.90;;;;;;5004565;28;20086;-79
2021/12/25 10:17:59;;;;;;;29.40;20.95;;;7.00;99.90;;;;;;5004865;28;19910;-78
2021/12/25 10:20:30;;;;;;;31.23;21.35;;;7.10;99.90;;;;;;4998811;28;20496;-78
2021/12/25 10:23:11;;;;;;;36.83;26.17;;;7.10;99.90;;;;;;4994871;28;20027;-79
2021/12/25 10:25:46;;;;;;;40.22;27.17;;;7.10;99.90;;;;;;4992910;28;20113;-78
2021/12/25 10:28:14;;;;;;;31.70;21.08;;;7.10;99.90;;;;;;4975425;28;20030;-77
2021/12/25 10:30:58;;;;;;;29.83;19.75;;;7.20;99.90;;;;;;4978276;28;20039;-79
2021/12/25 10:33:29;;;;;;;23.35;14.38;;;7.30;99.90;;;;;;4994624;28;20039;-78
2021/12/25 10:35:58;;;;;;;18.77;12.00;;;7.30;99.90;;;;;;4992762;28;20491;-78
2021/12/25 10:38:24;;;;;;;20.27;13.25;;;7.30;99.90;;;;;;4993163;28;20035;-78
2021/12/25 10:41:08;;;;;;;56.63;32.75;;;7.30;99.90;;;;;;4975903;28;20019;-78
2021/12/25 10:43:40;;;;;;;34.15;20.17;;;7.40;99.90;;;;;;4977169;28;20041;-78
2021/12/25 10:46:06;;;;;;;14.15;9.65;;;7.40;99.90;;;;;;4975082;28;20503;-77
2021/12/25 10:48:32;;;;;;;22.83;14.57;;;7.50;99.90;;;;;;4990904;28;20526;-79
2021/12/25 10:50:58;;;;;;;;;;;7.50;99.90;;;;;;4978922;28;20054;-78
2021/12/25 10:53:42;;;;;;;16.88;10.65;;;7.70;99.90;;;;;;4976624;28;19917;-78
2021/12/25 10:56:15;;;;;;;26.25;16.27;;;7.50;99.90;;;;;;4992339;28;20113;-78
2021/12/25 10:58:42;;;;;;;27.80;18.35;;;7.40;99.90;;;;;;4976476;28;20087;-78
2021/12/25 11:01:11;;;;;;;34.05;22.67;;;7.20;99.90;;;;;;4971419;28;20027;-77
2021/12/25 11:03:42;;;;;;;34.17;22.17;;;7.00;99.90;;;;;;4989617;28;20399;-78
2021/12/25 11:06:17;;;;;;;33.90;23.52;;;6.90;99.90;;;;;;4985295;28;20041;-77
2021/12/25 11:08:44;;;;;;;45.78;30.05;;;6.70;99.90;;;;;;4988020;28;20034;-78
2021/12/25 11:11:18;;;;;;;43.95;29.55;;;6.50;99.90;;;;;;4988912;28;20042;-78
2021/12/25 11:13:51;;;;;;;38.25;25.77;;;6.40;99.90;;;;;;4990446;28;20035;-79
2021/12/25 11:16:27;;;;;;;59.08;37.92;;;6.30;99.90;;;;;;4992649;28;20097;-79
2021/12/25 11:21:34;;;;;;;50.78;30.45;;;6.10;99.90;;;;;;4983580;28;20027;-80
2021/12/25 11:24:16;;;;;;;45.83;29.17;;;6.00;99.90;;;;;;4991915;28;20033;-80
2021/12/25 11:26:47;;;;;;;49.65;29.52;;;6.00;99.90;;;;;;4994332;28;20021;-80
2021/12/25 11:29:15;;;;;;;42.42;25.23;;;5.90;99.90;;;;;;4993392;28;20031;-80
2021/12/25 11:31:43;;;;;;;42.28;25.55;;;5.80;99.90;;;;;;5009350;28;20073;-80
2021/12/25 11:34:09;;;;;;;37.63;24.85;;;5.70;99.90;;;;;;5007475;28;20107;-79
2021/12/25 11:36:40;;;;;;;43.80;28.77;;;5.60;99.90;;;;;;4991855;28;20105;-79
2021/12/25 11:39:07;;;;;;;44.17;26.33;;;5.40;99.90;;;;;;5005978;28;20085;-80
2021/12/25 11:41:35;;;;;;;49.05;27.25;;;5.30;99.90;;;;;;5010081;28;20031;-79
2021/12/25 11:44:05;;;;;;;39.45;24.10;;;5.30;99.90;;;;;;5010416;28;20038;-79
2021/12/25 11:46:39;;;;;;;42.05;23.77;;;5.30;99.90;;;;;;4993954;28;20026;-79
2021/12/25 11:49:11;;;;;;;37.75;23.60;;;5.30;99.90;;;;;;5009527;28;20043;-80
2021/12/25 11:51:40;;;;;;;48.33;28.75;;;5.10;99.90;;;;;;4991601;28;20103;-79
2021/12/25 11:54:27;;;;;;;43.22;26.10;;;5.20;99.90;;;;;;5007278;28;20137;-78
2021/12/25 11:59:49;;;;;;;48.35;28.25;;;4.90;99.90;;;;;;4993157;28;20174;-78
2021/12/25 12:02:42;;;;;;;46.58;28.73;;;4.90;99.90;;;;;;5007129;28;20023;-77
2021/12/25 12:05:29;;;;;;;43.75;26.13;;;4.90;99.90;;;;;;4992327;28;20011;-78
2021/12/25 12:08:10;;;;;;;43.33;26.45;;;4.80;99.90;;;;;;4991310;28;20033;-78
2021/12/25 12:10:47;;;;;;;49.35;27.85;;;4.80;99.90;;;;;;4991261;28;20058;-77
2021/12/25 12:13:28;;;;;;;44.38;27.05;;;4.70;99.90;;;;;;4990771;28;20030;-78
2021/12/25 12:16:00;;;;;;;46.38;26.50;;;4.70;99.90;;;;;;5007070;28;20022;-78
2021/12/25 12:18:26;;;;;;;51.00;30.13;;;4.70;99.90;;;;;;5007370;28;20030;-78
2021/12/25 12:20:56;;;;;;;;;;;4.50;99.90;;;;;;4992627;28;20031;-78
2021/12/25 12:26:09;;;;;;;40.60;23.83;;;4.50;99.90;;;;;;4992200;28;20031;-78
2021/12/25 12:28:47;;;;;;;43.55;23.73;;;4.40;99.90;;;;;;5009501;28;20011;-78
2021/12/25 12:31:45;;;;;;;42.58;23.10;;;4.30;99.90;;;;;;5008642;28;20098;-78
2021/12/25 12:34:29;;;;;;;38.58;22.08;;;4.20;99.90;;;;;;5007788;28;20552;-78
2021/12/25 12:37:13;;;;;;;40.67;23.48;;;4.20;99.90;;;;;;4989374;28;20090;-77
2021/12/25 12:39:55;;;;;;;39.53;23.33;;;4.10;99.90;;;;;;4993595;28;20014;-78
2021/12/25 12:42:46;;;;;;;44.72;24.75;;;4.10;99.90;;;;;;4977799;28;20225;-76
2021/12/25 12:45:20;;;;;;;42.25;23.55;;;4.10;99.90;;;;;;4990868;28;20035;-77
2021/12/25 12:48:17;;;;;;;46.78;24.00;;;4.30;99.90;;;;;;4974147;28;20523;-76
2021/12/25 12:50:49;;;;;;;48.10;28.33;;;4.20;99.90;;;;;;4976771;28;20034;-77
2021/12/25 12:53:15;;;;;;;39.75;22.17;;;4.10;99.90;;;;;;4980235;28;20042;-77
2021/12/25 12:55:46;;;;;;;34.22;20.00;;;4.20;99.90;;;;;;4980688;28;20069;-77
2021/12/25 12:58:12;;;;;;;40.03;22.63;;;4.20;99.90;;;;;;4978691;28;20038;-78
2021/12/25 13:00:38;;;;;;;;;;;4.20;99.90;;;;;;4980572;28;20027;-77
2021/12/25 13:03:04;;;;;;;36.28;19.45;;;4.10;99.90;;;;;;4993801;28;19934;-78
2021/12/25 13:05:41;;;;;;;43.90;22.45;;;4.10;99.90;;;;;;4979799;28;20018;-79
2021/12/25 13:08:11;;;;;;;;;;;4.10;99.90;;;;;;4999942;28;20196;-77
2021/12/25 13:13:05;;;;;;;;;;;3.90;99.90;;;;;;4983235;28;20050;-78
2021/12/25 13:15:33;;;;;;;38.45;20.33;;;4.00;99.90;;;;;;4986225;28;19968;-79
2021/12/25 13:18:02;;;;;;;39.33;21.60;;;4.00;99.90;;;;;;4995909;28;20038;-77
2021/12/25 13:20:37;;;;;;;54.38;29.23;;;4.00;99.90;;;;;;4997015;28;20023;-78
2021/12/25 13:23:10;;;;;;;44.00;24.70;;;3.90;99.90;;;;;;4997159;28;20034;-79
2021/12/25 13:25:42;;;;;;;42.22;21.25;;;3.90;99.90;;;;;;4993900;28;20278;-78
2021/12/25 13:28:08;;;;;;;38.22;21.80;;;3.90;99.90;;;;;;4989785;28;20034;-78
2021/12/25 13:30:34;;;;;;;;;;;3.70;99.90;;;;;;4990494;28;20037;-77
2021/12/25 13:33:13;;;;;;;34.00;17.95;;;3.80;99.90;;;;;;4977698;28;19914;-78
2021/12/25 13:35:40;;;;;;;81.25;40.72;;;3.70;99.90;;;;;;4973436;28;20827;-76
2021/12/25 13:38:07;;;;;;;29.58;15.40;;;3.70;99.90;;;;;;4986046;28;20562;-76
2021/12/25 13:40:33;;;;;;;27.88;16.80;;;3.80;99.90;;;;;;4973561;28;20082;-78
2021/12/25 13:43:09;;;;;;;31.05;18.02;;;3.80;99.90;;;;;;4988264;28;20476;-77
2021/12/25 13:45:36;;;;;;;28.83;17.90;;;3.80;99.90;;;;;;4975150;28;20027;-78
2021/12/25 13:48:06;;;;;;;30.30;16.52;;;3.70;99.90;;;;;;4989990;28;20031;-77
2021/12/25 13:50:33;;;;;;;32.15;17.48;;;3.80;99.90;;;;;;4989454;28;20097;-77
2021/12/25 13:52:59;;;;;;;29.17;15.40;;;3.80;99.90;;;;;;4990338;28;20109;-78
2021/12/25 13:55:26;;;;;;;;;;;3.80;99.90;;;;;;4977767;28;20046;-78
2021/12/25 13:57:55;;;;;;;;;;;3.80;99.90;;;;;;4991760;28;20001;-77
2021/12/25 14:00:25;;;;;;;31.65;17.58;;;3.70;99.90;;;;;;4976137;28;19910;-78
2021/12/25 14:02:53;;;;;;;27.23;16.48;;;3.60;99.90;;;;;;4991235;28;20030;-78
2021/12/25 14:05:22;;;;;;;23.38;13.77;;;3.70;99.90;;;;;;4974782;28;20038;-77
2021/12/25 14:07:50;;;;;;;21.77;13.35;;;3.70;99.90;;;;;;4975752;28;20412;-78
2021/12/25 14:10:18;;;;;;;26.13;16.10;;;3.60;99.90;;;;;;4985287;28;20035;-79
2021/12/25 14:12:50;;;;;;;23.35;14.82;;;3.70;99.90;;;;;;4995920;28;20154;-78
2021/12/25 14:15:18;;;;;;;25.73;13.50;;;3.70;99.90;;;;;;4987284;28;20038;-78
2021/12/25 14:17:45;;;;;;;28.75;16.83;;;3.50;99.90;;;;;;4985826;28;20031;-78
2021/12/25 14:20:22;;;;;;;26.98;14.90;;;3.50;99.90;;;;;;4986323;28;20031;-77
2021/12/25 14:22:57;;;;;;;24.55;15.05;;;3.50;99.90;;;;;;4977158;28;20031;-77
2021/12/25 14:25:29;;;;;;;26.73;15.82;;;3.40;99.90;;;;;;4986958;28;20039;-78
2021/12/25 14:28:18;;;;;;;28.25;15.57;;;3.50;99.90;;;;;;4986932;28;20026;-78
2021/12/25 14:31:00;;;;;;;36.20;20.75;;;3.40;99.90;;;;;;4991725;28;20122;-78